KJGG Airport Information

Runway Information
Runway 13 Length 3204 ft width 60 ft
Elevation 48 ft Threshold 0 ft Heading 121
Runway 31 Length 3204 ft Width 60 ft
Elevation 22 ft Threshold 0 ft Heading 301
Airport Frequencies
Type A/D Name NORFOLK AP Frequency 119.45 MHZ
Type AWOS Name AWOS 3 Frequency 120.625 MHZ
Type UNIC Name CTAF/UNICO Frequency 122.8 MHZ
Airport Navaids
Airport Weather Information & NOTAM
ADDS - METARS form results

(0628 UTC 22 January 2021)
Data provider http://aviationweather.gov/metar/data/
 
METAR text: KJGG 220615Z AUTO 00000KT 10SM CLR 05/M01 A2978 RMK AO1
Conditions at: KJGG (WILLIAMSBURG , VA, US) observed 0615 UTC 22 January 2021
Temperature: 5.0°C (41°F)
Dewpoint: -1.0°C (30°F) [RH = 65%]
Pressure (altimeter): 29.78 inches Hg (1008.5 mb)
Winds: calm
Visibility: 10 or more miles (16+ km)
Ceiling: at least 12,000 feet AGL
Clouds: sky clear below 12,000 feet AGL
Weather: automated observation with no human augmentation;
there may or may not be significant weather present at this time

METAR text: KJGG 220555Z AUTO 28005KT 10SM CLR 04/M01 A2977 RMK AO1
Conditions at: KJGG (WILLIAMSBURG , VA, US) observed 0555 UTC 22 January 2021
Temperature: 4.0°C (39°F)
Dewpoint: -1.0°C (30°F) [RH = 70%]
Pressure (altimeter): 29.77 inches Hg (1008.2 mb)
Winds: from the W (280 degrees) at 6 MPH (5 knots; 2.6 m/s)
Visibility: 10 or more miles (16+ km)
Ceiling: at least 12,000 feet AGL
Clouds: sky clear below 12,000 feet AGL
Weather: automated observation with no human augmentation;
there may or may not be significant weather present at this time

METAR text: KJGG 220535Z AUTO 28007KT 10SM CLR 04/M01 A2978 RMK AO1
Conditions at: KJGG (WILLIAMSBURG , VA, US) observed 0535 UTC 22 January 2021
Temperature: 4.0°C (39°F)
Dewpoint: -1.0°C (30°F) [RH = 70%]
Pressure (altimeter): 29.78 inches Hg (1008.5 mb)
Winds: from the W (280 degrees) at 8 MPH (7 knots; 3.6 m/s)
Visibility: 10 or more miles (16+ km)
Ceiling: at least 12,000 feet AGL
Clouds: sky clear below 12,000 feet AGL
Weather: automated observation with no human augmentation;
there may or may not be significant weather present at this time